Time;durP1;ratioP1;P1;durP2;ratioP2;P2;SDS_P1;SDS_P2;PMS_P1;PMS_P2;Temp;Humidity;BMP_temperature;BMP_pressure;BME280_temperature;BME280_humidity;BME280_pressure;Samples;Min_cycle;Max_cycle;Signal;HPM_P1;HPM_P2
2024/01/03 00:00:53;;;;;;;1.50;1.30;;;22.10;42.60;;;;;;5096725;28;20024;-33
2024/01/03 00:03:20;;;;;;;1.83;1.63;;;22.10;42.50;;;;;;5118274;28;20032;-33
2024/01/03 00:05:46;;;;;;;3.55;1.40;;;22.10;42.50;;;;;;5112582;27;20479;-32
2024/01/03 00:08:18;;;;;;;1.67;1.50;;;22.20;42.60;;;;;;5111747;28;20042;-32
2024/01/03 00:10:54;;;;;;;3.25;1.40;;;22.30;42.60;;;;;;5109352;27;20081;-36
2024/01/03 00:13:30;;;;;;;3.03;1.63;;;22.40;42.60;;;;;;5112651;28;20047;-32
2024/01/03 00:16:03;;;;;;;3.70;1.48;;;22.40;42.60;;;;;;5111277;28;20034;-32
2024/01/03 00:18:36;;;;;;;3.10;1.52;;;22.40;42.60;;;;;;5107954;27;20495;-34
2024/01/03 00:21:06;;;;;;;1.98;1.40;;;22.30;42.80;;;;;;5110927;28;20032;-36
2024/01/03 00:23:39;;;;;;;2.92;1.40;;;22.20;42.70;;;;;;5098248;28;20031;-35
2024/01/03 00:26:09;;;;;;;2.22;1.30;;;22.10;42.80;;;;;;5117680;28;20032;-33
2024/01/03 00:28:35;;;;;;;2.33;1.60;;;22.10;42.90;;;;;;5115091;28;20031;-33
2024/01/03 00:31:01;;;;;;;1.95;1.30;;;22.00;42.90;;;;;;5121138;27;20031;-36
2024/01/03 00:33:27;;;;;;;2.45;1.50;;;22.00;43.30;;;;;;5109948;27;20034;-34
2024/01/03 00:35:53;;;;;;;1.52;1.17;;;22.00;42.90;;;;;;5118619;27;20034;-31
2024/01/03 00:38:19;;;;;;;1.63;1.20;;;22.00;43.00;;;;;;5113545;27;20038;-29
2024/01/03 00:40:55;;;;;;;1.92;1.23;;;21.90;43.10;;;;;;5112700;27;20024;-31
2024/01/03 00:43:22;;;;;;;1.45;1.20;;;21.80;43.30;;;;;;5124013;27;20042;-34
2024/01/03 00:45:48;;;;;;;1.50;1.15;;;21.80;43.30;;;;;;5111482;28;20059;-33
2024/01/03 00:48:15;;;;;;;1.20;1.10;;;21.90;43.30;;;;;;5109553;28;20028;-34
2024/01/03 00:50:41;;;;;;;2.63;1.27;;;22.00;43.10;;;;;;5127168;27;20058;-32
2024/01/03 00:53:07;;;;;;;1.17;1.00;;;22.00;43.10;;;;;;5110213;28;20040;-36
2024/01/03 00:55:34;;;;;;;1.52;1.13;;;22.00;43.00;;;;;;5088384;28;20053;-34
2024/01/03 00:58:00;;;;;;;1.37;1.13;;;21.90;43.10;;;;;;5114472;28;20074;-35
2024/01/03 01:00:27;;;;;;;1.47;1.13;;;21.80;43.30;;;;;;5095727;28;20028;-31
2024/01/03 01:02:53;;;;;;;3.33;1.03;;;21.80;43.30;;;;;;5108803;28;20032;-34
2024/01/03 01:05:19;;;;;;;2.63;1.00;;;21.80;43.00;;;;;;5110741;28;20050;-33
2024/01/03 01:07:45;;;;;;;3.25;1.10;;;21.90;42.90;;;;;;5113888;27;20042;-32
2024/01/03 01:10:12;;;;;;;3.72;1.10;;;21.90;43.00;;;;;;5111161;28;20028;-34
2024/01/03 01:12:38;;;;;;;11.90;1.60;;;21.80;42.90;;;;;;5112307;27;20054;-32
2024/01/03 01:15:04;;;;;;;2.92;1.38;;;21.80;43.20;;;;;;5117208;27;20028;-35
2024/01/03 01:17:31;;;;;;;1.60;1.13;;;21.80;42.90;;;;;;5117048;28;20019;-33
2024/01/03 01:19:57;;;;;;;2.30;1.13;;;21.80;43.00;;;;;;5110741;28;20040;-34
2024/01/03 01:22:25;;;;;;;1.67;1.20;;;21.90;43.00;;;;;;5112510;27;20023;-33
2024/01/03 01:24:52;;;;;;;2.28;1.50;;;22.00;42.90;;;;;;5110283;28;20393;-35
2024/01/03 01:27:18;;;;;;;1.67;1.00;;;22.10;42.80;;;;;;5085634;28;20048;-34
2024/01/03 01:29:44;;;;;;;1.90;1.13;;;22.20;42.80;;;;;;5112537;27;20030;-37
2024/01/03 01:32:10;;;;;;;1.67;1.13;;;22.30;42.80;;;;;;5114335;28;20042;-32
2024/01/03 01:34:37;;;;;;;2.13;1.58;;;22.30;42.70;;;;;;5115416;28;20027;-33
2024/01/03 01:37:03;;;;;;;2.00;1.77;;;22.30;42.80;;;;;;5115285;28;20046;-36
2024/01/03 01:39:29;;;;;;;1.70;1.43;;;22.20;42.70;;;;;;5111440;27;20089;-35
2024/01/03 01:41:56;;;;;;;2.05;1.63;;;22.20;42.90;;;;;;5113876;27;20392;-34
2024/01/03 01:44:22;;;;;;;2.00;1.50;;;22.10;42.80;;;;;;5111875;28;20052;-33
2024/01/03 01:46:48;;;;;;;3.05;1.70;;;22.00;43.10;;;;;;5106424;28;20119;-35
2024/01/03 01:49:16;;;;;;;3.15;1.80;;;21.90;43.30;;;;;;5107690;28;20028;-36
2024/01/03 01:51:42;;;;;;;2.33;1.70;;;21.90;43.60;;;;;;5089391;28;20040;-37
2024/01/03 01:54:09;;;;;;;1.90;1.50;;;21.90;43.20;;;;;;5115537;28;20028;-33
2024/01/03 01:56:35;;;;;;;2.40;1.60;;;21.90;43.30;;;;;;5093421;27;20039;-34
2024/01/03 01:59:01;;;;;;;2.90;1.60;;;21.80;43.40;;;;;;5110295;27;20028;-36
2024/01/03 02:01:28;;;;;;;2.15;1.55;;;21.80;43.30;;;;;;5090385;27;20127;-34
2024/01/03 02:03:56;;;;;;;1.43;1.30;;;21.70;43.30;;;;;;5108895;28;20024;-34
2024/01/03 02:06:22;;;;;;;2.15;1.63;;;21.80;43.50;;;;;;5110500;27;20288;-37
2024/01/03 02:08:49;;;;;;;2.92;1.50;;;21.90;43.30;;;;;;5114409;27;20051;-36
2024/01/03 02:11:16;;;;;;;2.30;1.45;;;22.00;43.20;;;;;;5115002;28;20070;-36
2024/01/03 02:13:46;;;;;;;1.77;1.50;;;22.00;43.20;;;;;;5095828;28;20020;-34
2024/01/03 02:16:14;;;;;;;2.20;1.65;;;21.90;43.20;;;;;;5095947;28;20291;-36
2024/01/03 02:18:41;;;;;;;2.13;1.58;;;21.80;43.30;;;;;;5106553;28;20024;-33
2024/01/03 02:21:17;;;;;;;1.50;1.40;;;21.80;43.60;;;;;;5110706;28;20027;-35
2024/01/03 02:23:44;;;;;;;3.30;1.42;;;21.80;43.40;;;;;;5119774;27;20031;-35
2024/01/03 02:26:10;;;;;;;1.85;1.40;;;21.80;43.30;;;;;;5107766;28;20043;-36
2024/01/03 02:28:37;;;;;;;2.03;1.23;;;21.70;43.30;;;;;;5098237;28;20031;-33
2024/01/03 02:31:04;;;;;;;2.50;1.70;;;21.60;43.40;;;;;;5112231;28;20036;-33
2024/01/03 02:33:30;;;;;;;1.88;1.50;;;21.60;43.50;;;;;;5116217;28;20012;-31
2024/01/03 02:35:57;;;;;;;1.80;1.40;;;21.50;43.40;;;;;;5119733;28;20061;-33
2024/01/03 02:38:24;;;;;;;1.95;1.58;;;21.60;43.30;;;;;;5101742;28;20046;-35
2024/01/03 02:40:51;;;;;;;1.77;1.20;;;21.80;43.20;;;;;;5105749;28;20028;-34
2024/01/03 02:43:18;;;;;;;1.58;1.10;;;21.90;43.00;;;;;;5106328;28;20077;-31
2024/01/03 02:45:44;;;;;;;1.98;1.13;;;22.00;43.40;;;;;;5116624;28;20416;-32
2024/01/03 02:48:11;;;;;;;1.70;1.20;;;22.10;42.70;;;;;;5118836;28;20063;-33
2024/01/03 02:50:38;;;;;;;1.17;1.00;;;22.20;42.40;;;;;;5119979;28;20296;-37
2024/01/03 02:53:04;;;;;;;2.13;1.33;;;22.30;42.60;;;;;;5112367;28;20114;-33
2024/01/03 02:55:31;;;;;;;2.10;1.60;;;22.20;42.50;;;;;;5109966;28;20024;-32
2024/01/03 02:57:57;;;;;;;1.55;1.30;;;22.20;42.40;;;;;;5094385;28;20027;-36
2024/01/03 03:00:24;;;;;;;2.17;1.40;;;22.10;42.50;;;;;;5111375;28;20032;-35
2024/01/03 03:02:50;;;;;;;2.13;1.40;;;22.00;42.60;;;;;;5094606;28;20045;-32
2024/01/03 03:05:17;;;;;;;1.77;1.50;;;21.90;42.80;;;;;;5109867;28;20059;-35
2024/01/03 03:07:43;;;;;;;1.67;1.40;;;21.80;42.80;;;;;;5116233;28;20119;-32
2024/01/03 03:10:12;;;;;;;1.55;1.45;;;21.80;42.60;;;;;;5115216;28;20040;-35
2024/01/03 03:12:38;;;;;;;2.10;1.50;;;21.80;42.50;;;;;;5116188;28;20057;-35
2024/01/03 03:15:05;;;;;;;2.45;1.52;;;21.70;42.50;;;;;;5107890;28;20055;-36
2024/01/03 03:17:31;;;;;;;;;;;21.60;42.70;;;;;;5114364;28;20030;-34
2024/01/03 03:19:58;;;;;;;3.40;1.42;;;21.60;42.80;;;;;;5116428;28;19923;-34
2024/01/03 03:22:24;;;;;;;2.25;1.70;;;21.60;42.70;;;;;;5114233;27;20034;-34
2024/01/03 03:24:50;;;;;;;1.85;1.55;;;21.70;42.80;;;;;;5116062;28;20054;-35
2024/01/03 03:27:17;;;;;;;1.83;1.60;;;21.90;42.50;;;;;;5100821;28;20043;-36
2024/01/03 03:29:43;;;;;;;1.95;1.58;;;22.00;42.30;;;;;;5114294;27;20294;-35
2024/01/03 03:32:10;;;;;;;1.65;1.33;;;22.10;42.30;;;;;;5122722;28;20031;-33
2024/01/03 03:34:36;;;;;;;1.45;1.25;;;22.20;42.00;;;;;;5120200;28;20034;-36
2024/01/03 03:37:03;;;;;;;1.50;1.40;;;22.20;42.10;;;;;;5113934;28;20099;-36
2024/01/03 03:39:30;;;;;;;1.90;1.40;;;22.20;42.10;;;;;;5124360;27;20364;-32
2024/01/03 03:41:56;;;;;;;2.60;1.80;;;22.20;42.00;;;;;;5119872;28;20581;-35
2024/01/03 03:44:22;;;;;;;3.03;1.60;;;22.10;42.20;;;;;;5117596;28;20024;-35
2024/01/03 03:46:48;;;;;;;1.90;1.63;;;22.00;42.90;;;;;;5120091;28;20043;-35
2024/01/03 03:49:14;;;;;;;1.40;1.10;;;21.90;42.50;;;;;;5121322;28;20031;-35
2024/01/03 03:51:41;;;;;;;3.53;1.70;;;21.90;42.50;;;;;;5118549;28;20081;-35
2024/01/03 03:54:07;;;;;;;4.65;1.55;;;22.10;41.90;;;;;;5120233;28;20034;-34
2024/01/03 03:56:33;;;;;;;1.73;1.50;;;22.20;42.20;;;;;;5113787;28;20035;-35
2024/01/03 03:58:59;;;;;;;1.92;1.42;;;22.30;42.10;;;;;;5114594;28;20016;-36
2024/01/03 04:01:26;;;;;;;2.92;1.63;;;22.40;42.10;;;;;;5124603;27;20027;-36
2024/01/03 04:03:52;;;;;;;2.13;1.30;;;22.50;42.00;;;;;;5115424;28;20036;-35
2024/01/03 04:06:18;;;;;;;3.30;1.35;;;22.50;42.00;;;;;;5115977;28;20116;-35
2024/01/03 04:08:45;;;;;;;3.58;1.60;;;22.60;42.00;;;;;;5124351;27;20049;-35
2024/01/03 04:11:12;;;;;;;3.45;1.45;;;22.60;42.40;;;;;;5118024;28;20095;-34
2024/01/03 04:13:38;;;;;;;1.67;1.10;;;22.70;41.70;;;;;;5097136;28;20040;-36
2024/01/03 04:16:10;;;;;;;2.33;1.20;;;22.70;41.50;;;;;;5109407;28;20028;-35
2024/01/03 04:18:36;;;;;;;2.08;1.33;;;22.80;41.50;;;;;;5091095;28;20094;-35
2024/01/03 04:21:05;;;;;;;2.10;1.33;;;22.90;41.50;;;;;;5119616;27;20047;-35
2024/01/03 04:23:31;;;;;;;1.45;1.20;;;22.90;41.60;;;;;;5120604;27;20032;-35
2024/01/03 04:25:58;;;;;;;1.65;1.02;;;22.90;41.50;;;;;;5115668;28;20040;-35
2024/01/03 04:28:24;;;;;;;1.50;1.00;;;23.00;41.20;;;;;;5120026;28;20036;-30
2024/01/03 04:30:50;;;;;;;1.80;1.20;;;23.10;41.20;;;;;;5079566;28;20024;-33
2024/01/03 04:33:16;;;;;;;1.55;1.13;;;23.20;40.90;;;;;;5116356;28;20036;-33
2024/01/03 04:35:44;;;;;;;1.67;1.25;;;23.20;40.90;;;;;;5124874;27;20032;-33
2024/01/03 04:38:10;;;;;;;1.38;1.08;;;23.20;41.10;;;;;;5109460;28;20555;-36
2024/01/03 04:40:37;;;;;;;2.15;1.27;;;23.30;41.00;;;;;;5112248;28;20053;-36
2024/01/03 04:43:03;;;;;;;1.42;1.02;;;23.30;41.00;;;;;;5117651;28;20091;-35
2024/01/03 04:45:30;;;;;;;1.58;1.10;;;23.40;40.80;;;;;;5106354;28;20052;-35
2024/01/03 04:47:56;;;;;;;1.65;1.00;;;23.40;40.90;;;;;;5123003;28;20043;-31
2024/01/03 04:50:22;;;;;;;1.38;0.90;;;23.40;40.90;;;;;;5114659;28;20043;-32
2024/01/03 04:52:48;;;;;;;1.85;1.30;;;23.40;40.90;;;;;;5113934;28;20075;-33
2024/01/03 04:55:14;;;;;;;2.08;0.98;;;23.50;40.70;;;;;;5095094;28;20024;-34
2024/01/03 04:57:41;;;;;;;1.40;1.00;;;23.60;40.60;;;;;;5116767;27;20032;-33
2024/01/03 05:00:07;;;;;;;1.38;1.10;;;23.60;40.50;;;;;;5121190;27;20027;-30
2024/01/03 05:02:36;;;;;;;1.33;1.10;;;23.60;40.50;;;;;;5117815;28;20063;-34
2024/01/03 05:05:03;;;;;;;2.28;1.30;;;23.70;40.60;;;;;;5115781;28;20095;-35
2024/01/03 05:07:31;;;;;;;1.42;1.15;;;23.70;40.70;;;;;;5110930;28;20042;-32
2024/01/03 05:09:57;;;;;;;1.45;1.20;;;23.70;40.50;;;;;;5110861;28;20044;-35
2024/01/03 05:12:24;;;;;;;1.77;1.38;;;23.70;40.50;;;;;;5111291;27;20020;-30
2024/01/03 05:14:50;;;;;;;2.78;1.65;;;23.60;40.50;;;;;;5107708;28;20092;-35
2024/01/03 05:17:16;;;;;;;2.15;1.20;;;23.40;40.40;;;;;;5109287;27;20435;-32
2024/01/03 05:19:43;;;;;;;1.48;1.33;;;23.30;40.80;;;;;;5120325;28;20032;-36
2024/01/03 05:22:09;;;;;;;1.90;1.45;;;23.20;40.50;;;;;;5113140;27;20028;-35
2024/01/03 05:24:35;;;;;;;2.37;1.50;;;23.10;40.20;;;;;;5113067;28;20096;-36
2024/01/03 05:27:01;;;;;;;2.08;1.42;;;23.10;40.50;;;;;;5116448;28;20051;-36
2024/01/03 05:29:28;;;;;;;2.72;1.40;;;22.90;40.70;;;;;;5117641;28;20119;-35
2024/01/03 05:31:54;;;;;;;1.80;1.20;;;22.80;40.80;;;;;;5112396;27;20078;-30
2024/01/03 05:34:20;;;;;;;1.73;1.50;;;22.70;40.90;;;;;;5109609;28;20024;-31
2024/01/03 05:36:46;;;;;;;2.10;1.30;;;22.60;40.60;;;;;;5108644;27;20039;-35
2024/01/03 05:39:15;;;;;;;1.98;1.40;;;22.60;40.70;;;;;;5120453;27;20026;-36
2024/01/03 05:41:42;;;;;;;1.67;1.38;;;22.70;40.90;;;;;;5092913;28;20036;-34
2024/01/03 05:44:08;;;;;;;2.30;1.67;;;22.80;40.80;;;;;;5109404;28;20118;-34
2024/01/03 05:46:34;;;;;;;3.20;1.63;;;22.90;40.80;;;;;;5116062;28;20063;-33
2024/01/03 05:49:00;;;;;;;2.47;1.52;;;22.90;40.70;;;;;;5111089;27;20016;-34
2024/01/03 05:51:26;;;;;;;2.33;1.47;;;23.00;40.80;;;;;;5111117;28;20047;-34
2024/01/03 05:53:53;;;;;;;1.90;1.20;;;23.10;40.70;;;;;;5109935;28;20031;-33
2024/01/03 05:56:19;;;;;;;1.98;1.30;;;23.10;40.60;;;;;;5115422;27;20027;-32
2024/01/03 05:58:45;;;;;;;1.90;1.40;;;23.20;40.70;;;;;;5111166;28;20038;-33
2024/01/03 06:01:12;;;;;;;2.38;1.23;;;23.20;40.80;;;;;;5110825;28;20035;-37
2024/01/03 06:03:38;;;;;;;2.15;1.40;;;23.30;40.80;;;;;;5113417;28;20032;-33
2024/01/03 06:06:04;;;;;;;2.05;1.50;;;23.30;40.70;;;;;;5108518;28;20492;-33
2024/01/03 06:08:30;;;;;;;1.88;1.45;;;23.30;40.70;;;;;;5111858;28;20036;-35
2024/01/03 06:10:56;;;;;;;3.15;1.50;;;23.40;40.50;;;;;;5115414;27;20035;-35
2024/01/03 06:13:23;;;;;;;1.95;1.33;;;23.50;40.50;;;;;;5112021;27;20032;-33
2024/01/03 06:15:49;;;;;;;2.13;1.43;;;23.50;40.50;;;;;;5114586;27;20055;-35
2024/01/03 06:18:15;;;;;;;2.05;1.48;;;23.60;40.50;;;;;;5117334;28;20365;-32
2024/01/03 06:20:41;;;;;;;2.60;1.58;;;23.60;40.40;;;;;;5113914;28;20024;-35
2024/01/03 06:23:07;;;;;;;2.42;1.55;;;23.60;40.30;;;;;;5114164;27;20237;-34
2024/01/03 06:25:33;;;;;;;2.22;1.30;;;23.70;40.20;;;;;;5113184;28;20031;-31
2024/01/03 06:28:00;;;;;;;1.60;1.40;;;23.70;40.20;;;;;;5118934;27;20035;-38
2024/01/03 06:30:26;;;;;;;2.87;1.40;;;23.70;40.10;;;;;;5117254;27;20031;-35
2024/01/03 06:32:52;;;;;;;1.88;1.42;;;23.80;40.30;;;;;;5120776;28;20027;-35
2024/01/03 06:35:18;;;;;;;2.35;1.65;;;23.80;40.20;;;;;;5115743;28;20108;-35
2024/01/03 06:37:44;;;;;;;2.40;1.60;;;23.80;40.00;;;;;;5106621;28;20031;-33
2024/01/03 06:40:11;;;;;;;1.60;1.30;;;23.80;39.70;;;;;;5112522;27;20042;-34
2024/01/03 06:42:37;;;;;;;2.77;1.50;;;23.90;39.70;;;;;;5117394;28;20034;-30
2024/01/03 06:45:04;;;;;;;2.88;1.60;;;23.90;39.80;;;;;;5110068;28;20060;-34
2024/01/03 06:47:31;;;;;;;1.65;1.33;;;24.00;40.30;;;;;;5113716;28;20032;-34
2024/01/03 06:49:57;;;;;;;2.08;1.50;;;24.00;39.90;;;;;;5116043;28;20044;-32
2024/01/03 06:52:23;;;;;;;2.30;1.20;;;24.00;39.70;;;;;;5116721;28;20036;-31
2024/01/03 06:54:50;;;;;;;1.63;1.00;;;24.00;39.70;;;;;;5117697;28;20034;-34
2024/01/03 06:57:16;;;;;;;2.10;1.27;;;24.10;39.60;;;;;;5114645;28;20071;-35
2024/01/03 06:59:42;;;;;;;2.17;1.48;;;24.10;39.70;;;;;;5117557;27;20088;-33
2024/01/03 07:02:08;;;;;;;1.60;1.20;;;24.10;39.60;;;;;;5119342;27;20051;-34
2024/01/03 07:04:35;;;;;;;1.67;1.30;;;24.10;39.80;;;;;;5118655;28;20840;-34
2024/01/03 07:07:01;;;;;;;1.75;1.17;;;24.10;39.50;;;;;;5113295;28;20040;-35
2024/01/03 07:09:27;;;;;;;1.65;1.17;;;24.20;39.60;;;;;;5117069;28;20115;-34
2024/01/03 07:11:53;;;;;;;1.58;1.30;;;24.20;39.50;;;;;;5115929;27;20059;-32
2024/01/03 07:14:20;;;;;;;3.53;1.48;;;24.20;39.60;;;;;;5119469;27;20431;-37
2024/01/03 07:16:46;;;;;;;3.78;1.42;;;24.20;39.60;;;;;;5112013;28;20032;-31
2024/01/03 07:19:12;;;;;;;1.75;1.38;;;24.20;39.70;;;;;;5111950;27;20023;-33
2024/01/03 07:21:38;;;;;;;2.63;1.30;;;24.20;38.50;;;;;;5113183;28;20035;-34
2024/01/03 07:24:05;;;;;;;2.83;1.17;;;24.20;39.30;;;;;;5120820;27;20035;-36
2024/01/03 07:26:31;;;;;;;3.28;1.45;;;24.00;39.40;;;;;;5118340;27;22070;-34
2024/01/03 07:28:57;;;;;;;1.90;1.40;;;23.90;39.50;;;;;;5112488;27;20038;-32
2024/01/03 07:31:23;;;;;;;2.05;1.38;;;23.80;39.80;;;;;;5109989;28;20024;-35
2024/01/03 07:33:49;;;;;;;2.75;1.40;;;23.70;39.20;;;;;;5115308;28;20029;-34
2024/01/03 07:36:15;;;;;;;2.42;1.52;;;23.60;39.30;;;;;;5117099;27;20791;-35
2024/01/03 07:38:44;;;;;;;1.55;1.10;;;23.50;39.50;;;;;;5114669;27;20023;-32
2024/01/03 07:41:11;;;;;;;2.72;1.17;;;23.40;39.70;;;;;;5097499;28;20049;-31
2024/01/03 07:43:37;;;;;;;1.90;1.30;;;23.30;39.90;;;;;;5116105;28;20028;-35
2024/01/03 07:46:03;;;;;;;1.70;1.08;;;23.20;39.90;;;;;;5115437;27;20336;-31
2024/01/03 07:48:29;;;;;;;1.98;1.33;;;23.10;39.60;;;;;;5108568;28;20111;-33
2024/01/03 07:50:55;;;;;;;2.42;1.40;;;23.10;39.60;;;;;;5118800;27;20043;-31
2024/01/03 07:53:21;;;;;;;1.75;1.42;;;23.00;39.90;;;;;;5121779;27;20028;-34
2024/01/03 07:55:48;;;;;;;1.17;0.98;;;22.90;40.00;;;;;;5110345;27;20032;-33
2024/01/03 07:58:14;;;;;;;3.70;1.17;;;22.90;40.10;;;;;;5118842;28;20487;-35
2024/01/03 08:00:40;;;;;;;1.80;1.30;;;23.00;40.20;;;;;;5102036;28;20051;-36
2024/01/03 08:03:06;;;;;;;1.42;1.08;;;23.10;40.20;;;;;;5118273;28;20024;-35
2024/01/03 08:05:32;;;;;;;1.67;1.20;;;23.10;40.20;;;;;;5109898;28;20400;-32
2024/01/03 08:07:59;;;;;;;3.60;1.40;;;23.00;40.10;;;;;;5124157;27;20046;-34
2024/01/03 08:10:25;;;;;;;1.48;1.23;;;22.90;40.10;;;;;;5119030;28;20030;-33
2024/01/03 08:12:51;;;;;;;1.20;1.10;;;22.80;40.70;;;;;;5110951;27;20431;-32
2024/01/03 08:15:17;;;;;;;1.67;1.17;;;22.70;40.30;;;;;;5112015;28;20020;-34
2024/01/03 08:17:43;;;;;;;1.70;1.10;;;22.60;39.90;;;;;;5114481;28;20083;-36
2024/01/03 08:20:10;;;;;;;1.60;1.20;;;22.60;39.90;;;;;;5112043;27;20036;-34
2024/01/03 08:22:36;;;;;;;2.47;1.30;;;22.60;40.30;;;;;;5117905;28;20028;-33
2024/01/03 08:25:02;;;;;;;1.55;1.25;;;22.50;40.40;;;;;;5114266;27;20039;-35
2024/01/03 08:27:28;;;;;;;1.38;0.90;;;22.40;40.50;;;;;;5112011;28;20027;-34
2024/01/03 08:29:55;;;;;;;3.08;1.08;;;22.40;40.50;;;;;;5121675;27;20091;-34
2024/01/03 08:32:25;;;;;;;1.67;1.00;;;22.50;40.50;;;;;;5115865;28;20039;-34
2024/01/03 08:34:51;;;;;;;1.27;1.00;;;22.60;40.40;;;;;;5111895;28;20028;-32
2024/01/03 08:37:18;;;;;;;1.15;0.90;;;22.70;40.20;;;;;;5118751;28;20024;-32
2024/01/03 08:39:44;;;;;;;1.73;1.10;;;22.80;40.10;;;;;;5106652;27;20508;-33
2024/01/03 08:42:10;;;;;;;1.23;0.95;;;22.80;39.90;;;;;;5106899;27;20045;-34
2024/01/03 08:44:36;;;;;;;1.27;1.05;;;22.90;40.10;;;;;;5117983;28;20035;-36
2024/01/03 08:47:02;;;;;;;1.77;1.13;;;22.90;40.10;;;;;;5109530;28;20032;-32
2024/01/03 08:49:28;;;;;;;2.93;1.03;;;22.90;39.90;;;;;;5121017;27;20091;-34
2024/01/03 08:51:56;;;;;;;3.47;1.30;;;22.80;40.20;;;;;;5115230;27;20638;-33
2024/01/03 08:54:24;;;;;;;1.80;1.13;;;22.70;40.30;;;;;;5112398;28;20158;-34
2024/01/03 08:56:50;;;;;;;1.42;1.10;;;22.60;40.60;;;;;;5114434;28;20039;-36
2024/01/03 08:59:17;;;;;;;1.75;1.13;;;22.50;41.00;;;;;;5120377;28;20024;-33
2024/01/03 09:01:43;;;;;;;1.73;1.35;;;22.40;40.00;;;;;;5112222;28;20035;-36
2024/01/03 09:04:09;;;;;;;1.80;1.20;;;22.40;40.40;;;;;;5117868;28;20028;-34
2024/01/03 09:06:35;;;;;;;1.83;1.20;;;22.30;40.60;;;;;;5112306;28;20036;-36
2024/01/03 09:09:02;;;;;;;1.63;1.17;;;22.20;40.60;;;;;;5097053;28;20041;-35
2024/01/03 09:11:29;;;;;;;1.83;1.23;;;22.20;40.70;;;;;;5112076;28;20032;-34
2024/01/03 09:13:57;;;;;;;3.25;1.10;;;22.20;40.70;;;;;;5109476;28;20058;-31
2024/01/03 09:16:23;;;;;;;;;;;22.40;40.60;;;;;;5096231;28;20031;-36
2024/01/03 09:19:09;;;;;;;1.40;1.05;;;22.50;40.40;;;;;;5095524;28;19912;-34
2024/01/03 09:21:35;;;;;;;1.10;1.00;;;22.50;40.30;;;;;;5056321;28;20120;-30
2024/01/03 09:24:04;;;;;;;1.23;1.00;;;22.60;40.10;;;;;;5057799;28;20043;-34
2024/01/03 09:26:30;;;;;;;2.15;1.40;;;22.70;39.90;;;;;;5058108;28;20059;-33
2024/01/03 09:28:56;;;;;;;1.67;1.00;;;22.70;40.00;;;;;;5057807;28;20209;-35
2024/01/03 09:31:23;;;;;;;1.48;1.10;;;22.80;40.10;;;;;;5055991;28;20032;-36
2024/01/03 09:33:49;;;;;;;2.00;1.30;;;22.70;40.10;;;;;;5058810;28;20037;-34
2024/01/03 09:36:19;;;;;;;1.80;1.02;;;22.60;40.20;;;;;;5053701;28;20822;-33
2024/01/03 09:38:46;;;;;;;1.52;1.00;;;22.40;40.40;;;;;;5053442;28;20056;-34
2024/01/03 09:41:12;;;;;;;1.90;1.10;;;22.40;40.90;;;;;;5052244;28;20029;-35
2024/01/03 09:43:42;;;;;;;1.67;1.00;;;22.30;40.00;;;;;;5058589;28;20605;-34
2024/01/03 09:46:11;;;;;;;1.60;1.35;;;22.30;40.20;;;;;;5055180;28;20140;-36
2024/01/03 09:48:41;;;;;;;2.83;1.08;;;22.20;40.40;;;;;;5057181;28;20033;-34
2024/01/03 09:51:10;;;;;;;1.73;1.40;;;22.10;40.50;;;;;;5036703;28;20151;-35
2024/01/03 09:53:37;;;;;;;1.23;1.10;;;22.00;40.50;;;;;;5056980;28;20025;-34
2024/01/03 09:56:03;;;;;;;2.10;1.10;;;22.10;40.50;;;;;;5056011;28;20519;-35
2024/01/03 09:58:30;;;;;;;1.13;1.03;;;22.20;40.60;;;;;;5075113;28;20024;-35
2024/01/03 10:00:56;;;;;;;1.75;1.20;;;22.30;40.20;;;;;;5118686;28;20057;-34
2024/01/03 10:03:22;;;;;;;1.40;1.13;;;22.40;40.10;;;;;;5108743;28;20037;-34
2024/01/03 10:06:18;;;;;;;1.48;1.17;;;22.50;40.10;;;;;;5112135;27;20035;-39
2024/01/03 10:09:07;;;;;;;1.35;1.17;;;22.50;40.10;;;;;;5109590;28;20024;-36
2024/01/03 10:11:33;;;;;;;;;;;22.60;40.00;;;;;;5117824;28;20039;-35
2024/01/03 10:14:15;;;;;;;1.85;1.48;;;22.70;40.00;;;;;;5118600;27;19907;-35
2024/01/03 10:16:43;;;;;;;1.65;1.20;;;22.80;39.80;;;;;;5112731;28;20020;-33
2024/01/03 10:19:19;;;;;;;1.33;1.20;;;22.80;39.70;;;;;;5112566;28;20039;-36
2024/01/03 10:21:53;;;;;;;1.70;1.35;;;22.90;39.50;;;;;;5109151;27;20047;-36
2024/01/03 10:24:20;;;;;;;1.50;1.20;;;22.90;39.70;;;;;;5113064;27;20023;-35
2024/01/03 10:26:46;;;;;;;;;;;22.80;39.70;;;;;;5109596;27;20038;-35
2024/01/03 10:29:14;;;;;;;2.03;1.30;;;22.70;39.80;;;;;;5107245;28;19907;-33
2024/01/03 10:31:40;;;;;;;1.95;1.45;;;22.60;40.10;;;;;;5114263;28;20050;-31
2024/01/03 10:34:15;;;;;;;1.40;1.25;;;22.50;40.10;;;;;;5110789;28;20024;-34
2024/01/03 10:36:45;;;;;;;1.60;1.25;;;22.40;39.80;;;;;;5115572;27;20047;-34
2024/01/03 10:39:14;;;;;;;2.15;1.38;;;22.40;39.80;;;;;;5111834;28;20114;-34
2024/01/03 10:41:44;;;;;;;2.17;1.60;;;22.30;40.20;;;;;;5091861;28;20054;-36
2024/01/03 10:44:11;;;;;;;1.98;1.38;;;22.20;40.30;;;;;;5111998;27;20023;-34
2024/01/03 10:46:39;;;;;;;1.17;1.08;;;22.10;40.30;;;;;;5113450;28;20039;-33
2024/01/03 10:49:07;;;;;;;1.55;1.40;;;22.10;40.10;;;;;;5130106;28;20342;-33
2024/01/03 10:51:39;;;;;;;2.15;1.27;;;22.20;40.30;;;;;;5108567;28;20059;-33
2024/01/03 10:54:09;;;;;;;1.60;1.20;;;22.30;40.30;;;;;;5114068;28;20163;-33
2024/01/03 10:56:36;;;;;;;1.85;1.25;;;22.40;40.00;;;;;;5115856;28;20038;-31
2024/01/03 10:59:03;;;;;;;2.25;1.30;;;22.50;39.90;;;;;;5115978;28;20401;-33
2024/01/03 11:01:34;;;;;;;2.33;1.40;;;22.60;39.80;;;;;;5090662;28;20023;-34
2024/01/03 11:04:40;;;;;;;1.30;1.10;;;22.70;39.80;;;;;;5105981;28;20028;-34
2024/01/03 11:07:28;;;;;;;2.05;1.17;;;22.70;39.80;;;;;;5112724;28;20036;-34
2024/01/03 11:09:54;;;;;;;1.80;1.38;;;22.60;39.80;;;;;;5093081;28;20039;-32
2024/01/03 11:12:23;;;;;;;1.50;1.23;;;22.40;39.90;;;;;;5113335;28;20066;-33
2024/01/03 11:14:49;;;;;;;2.00;1.45;;;22.30;40.10;;;;;;5109239;28;20549;-35
2024/01/03 11:17:15;;;;;;;1.63;1.25;;;22.20;40.30;;;;;;5114854;28;20073;-32
2024/01/03 11:19:41;;;;;;;1.83;1.45;;;22.20;39.90;;;;;;5073481;28;20127;-33
2024/01/03 11:22:08;;;;;;;2.85;1.23;;;22.20;40.10;;;;;;5106039;28;20035;-31
2024/01/03 11:24:34;;;;;;;1.75;1.42;;;22.10;40.20;;;;;;5108773;28;20027;-36
2024/01/03 11:27:06;;;;;;;1.60;1.40;;;22.00;40.30;;;;;;5112510;28;20087;-31
2024/01/03 11:29:35;;;;;;;1.50;1.20;;;21.90;40.20;;;;;;5115552;28;20043;-31
2024/01/03 11:32:04;;;;;;;2.03;1.40;;;22.10;40.30;;;;;;5127060;28;20740;-31
2024/01/03 11:34:42;;;;;;;2.00;1.42;;;22.20;40.10;;;;;;5113992;28;20038;-35
2024/01/03 11:37:11;;;;;;;2.22;1.60;;;22.30;40.10;;;;;;5118798;28;20065;-36
2024/01/03 11:39:46;;;;;;;2.60;1.63;;;22.40;39.90;;;;;;5112605;28;20028;-35
2024/01/03 11:42:40;;;;;;;2.05;1.20;;;22.40;39.90;;;;;;5118718;27;20023;-36
2024/01/03 11:45:13;;;;;;;2.08;1.45;;;22.50;39.80;;;;;;5110064;27;20107;-34
2024/01/03 11:47:44;;;;;;;1.88;1.33;;;22.60;39.80;;;;;;5110774;28;20125;-31
2024/01/03 11:50:15;;;;;;;1.92;1.33;;;22.60;39.90;;;;;;5090096;28;20765;-35
2024/01/03 11:52:45;;;;;;;2.03;1.45;;;22.40;40.00;;;;;;5097031;28;20064;-33
2024/01/03 11:55:13;;;;;;;1.38;1.20;;;22.30;40.20;;;;;;5119122;28;20039;-33
2024/01/03 11:57:46;;;;;;;1.95;1.55;;;22.20;40.40;;;;;;5108011;28;20036;-35
2024/01/03 12:00:22;;;;;;;1.55;1.27;;;22.10;40.00;;;;;;5119881;28;20507;-32
2024/01/03 12:02:52;;;;;;;1.90;1.40;;;22.10;39.90;;;;;;5112635;27;20032;-32
2024/01/03 12:05:20;;;;;;;1.90;1.33;;;22.00;40.10;;;;;;5121999;28;20038;-32
2024/01/03 12:07:47;;;;;;;1.90;1.40;;;22.00;40.30;;;;;;5118877;27;20035;-33
2024/01/03 12:10:13;;;;;;;1.55;1.30;;;21.80;40.30;;;;;;5101787;28;20038;-36
2024/01/03 12:12:39;;;;;;;3.15;1.40;;;21.90;40.30;;;;;;5087422;28;20042;-30
2024/01/03 12:15:06;;;;;;;1.70;1.38;;;22.10;40.30;;;;;;5105725;28;20566;-34
2024/01/03 12:17:33;;;;;;;1.65;1.25;;;22.20;40.20;;;;;;5116130;28;20043;-32
2024/01/03 12:20:13;;;;;;;1.52;1.10;;;22.30;39.90;;;;;;5109597;28;20036;-33
2024/01/03 12:22:39;;;;;;;1.60;1.20;;;22.40;39.70;;;;;;5112046;27;20032;-31
2024/01/03 12:25:06;;;;;;;1.67;1.35;;;22.50;39.70;;;;;;5115478;28;20456;-35
2024/01/03 12:27:35;;;;;;;1.73;1.20;;;22.50;39.80;;;;;;5089911;28;20117;-33
2024/01/03 12:30:12;;;;;;;1.80;1.20;;;22.60;39.80;;;;;;5113300;27;20032;-36
2024/01/03 12:32:39;;;;;;;1.50;1.40;;;22.60;39.70;;;;;;5114225;28;20034;-33
2024/01/03 12:35:05;;;;;;;2.28;1.60;;;22.50;39.70;;;;;;5106828;28;20028;-36
2024/01/03 12:37:31;;;;;;;1.20;0.93;;;22.40;39.80;;;;;;5112891;27;20667;-35
2024/01/03 12:39:57;;;;;;;1.75;1.45;;;22.30;40.10;;;;;;5108876;27;20032;-34
2024/01/03 12:42:24;;;;;;;1.73;1.33;;;22.20;39.80;;;;;;5115341;27;20125;-33
2024/01/03 12:44:50;;;;;;;1.45;1.30;;;22.10;39.60;;;;;;5114212;28;20049;-33
2024/01/03 12:47:16;;;;;;;3.08;1.67;;;22.10;39.60;;;;;;5115861;28;20220;-34
2024/01/03 12:49:43;;;;;;;2.20;1.58;;;22.00;39.90;;;;;;5112531;28;20051;-36